ADDS METAR Data INFO
IDs: Format: Raw Decoded Include TAF

Data at: 0730 UTC 18 Oct 2017

KCVX 180714Z AUTO 18008KT 10SM CLR 13/09 A3006 RMK AO2 T01310094
KCVX 180654Z AUTO 19009KT 10SM CLR 13/10 A3006 RMK AO2 T01270095
KCVX 180635Z AUTO 16005KT 10SM CLR 11/09 A3006 RMK AO2 T01100090
KCVX 180614Z AUTO 16005KT 10SM CLR 11/09 A3007 RMK AO2 T01070088
KCVX 180555Z AUTO 15005KT 10SM CLR 10/09 A3007 RMK AO2 T01010085 10132 20100
KCVX 180534Z AUTO 14005KT 10SM CLR 10/08 A3007 RMK AO2 T01010083
KCVX 180514Z AUTO 14005KT 10SM CLR 10/08 A3007 RMK AO2 T01010080
KCVX 180455Z AUTO 13005KT 10SM CLR 11/08 A3007 RMK AO2 T01060081
KCVX 180434Z AUTO 14005KT 10SM CLR 11/08 A3007 RMK AO2 T01100082
KCVX 180414Z AUTO 15007KT 10SM CLR 11/08 A3007 RMK AO2 T01100081
KCVX 180355Z AUTO 14005KT 10SM CLR 11/08 A3007 RMK AO2 T01110080 401680090
KCVX 180334Z AUTO 15005KT 10SM CLR 12/08 A3007 RMK AO2 T01170081
KCVX 180314Z AUTO 16005KT 10SM CLR 12/08 A3008 RMK AO2 T01220081
KCVX 180255Z AUTO 17005KT 10SM CLR 12/08 A3008 RMK AO2 T01200080
KCVX 180234Z AUTO 17004KT 10SM CLR 13/08 A3008 RMK AO2 T01280082
KCVX 180214Z AUTO 18004KT 10SM CLR 13/08 A3008 RMK AO2 T01270083
KCVX 180155Z AUTO 17005KT 10SM CLR 13/09 A3008 RMK AO2 T01280086
KCVX 180134Z AUTO 19005KT 10SM CLR 13/09 A3008 RMK AO2 T01260088
KCVX 180114Z AUTO 16003KT 10SM CLR 13/09 A3008 RMK AO2 T01300090
KCVX 180055Z AUTO 18003KT 10SM CLR 13/09 A3008 RMK AO2 T01280092
KCVX 180034Z AUTO 19004KT 10SM CLR 13/09 A3007 RMK AO2 T01300090
KCVX 180014Z AUTO 19003KT 10SM CLR 12/09 A3007 RMK AO2 T01240092
KCVX 172355Z AUTO 00000KT 10SM CLR 12/09 A3007 RMK AO2 T01150092 10168 20115
KCVX 172334Z AUTO 00000KT 10SM CLR 13/10 A3007 RMK AO2 T01330097
KCVX 172314Z AUTO 21003KT 10SM CLR 14/10 A3006 RMK AO2 T01350096
KCVX 172255Z AUTO 22003KT 10SM CLR 14/10 A3005 RMK AO2 T01390097
KCVX 172234Z AUTO 18003KT 10SM CLR 15/10 A3005 RMK AO2 T01470098
KCVX 172214Z AUTO 24006KT 10SM CLR 15/10 A3005 RMK AO2 T01510100
KCVX 172155Z AUTO 24008KT 10SM CLR 16/11 A3004 RMK AO2 T01550105
KCVX 172134Z AUTO 25008KT 10SM CLR 16/11 A3004 RMK AO2 T01590105
KCVX 172114Z AUTO 25008KT 10SM CLR 16/11 A3005 RMK AO2 T01610108
KCVX 172054Z AUTO 25006KT 10SM CLR 16/10 A3005 RMK AO2 T01640104
KCVX 172034Z AUTO 25008KT 10SM CLR 17/11 A3004 RMK AO2 T01670106
KCVX 172015Z AUTO 26007KT 10SM CLR 16/10 A3004 RMK AO2 T01640100
KCVX 171954Z AUTO 23007KT 10SM CLR 15/09 A3004 RMK AO2 T01540092
KCVX 171934Z AUTO 24009KT 10SM CLR 15/09 A3003 RMK AO2 T01500090
KCVX 171914Z AUTO 24011G16KT 10SM CLR 15/09 A3004 RMK AO2 T01520091
KCVX 171854Z AUTO 24011KT 10SM CLR 16/09 A3003 RMK AO2 T01610089
KCVX 171834Z AUTO 25012KT 10SM CLR 17/09 A3003 RMK AO2 T01660088
KCVX 171814Z AUTO 21011G16KT 10SM CLR 16/09 A3003 RMK AO2 T01630088
KCVX 171754Z AUTO 24013G17KT 10SM CLR 16/09 A3004 RMK AO2 T01640089
KCVX 171734Z AUTO 23015KT 10SM CLR 16/09 A3004 RMK AO2 T01640088
KCVX 171715Z AUTO 24011G18KT 10SM CLR 16/09 A3005 RMK AO2 T01620090
KCVX 171654Z AUTO 23013G19KT 10SM CLR 16/09 A3004 RMK AO2 T01620090
KCVX 171634Z AUTO 23012G18KT 10SM CLR 16/09 A3004 RMK AO2 T01620090
KCVX 171615Z AUTO 24015G20KT 10SM CLR 16/08 A3003 RMK AO2 T01600081
KCVX 171554Z AUTO 25013KT 10SM CLR 16/08 A3003 RMK AO2 T01580082
KCVX 171534Z AUTO 25014G20KT 220V280 10SM CLR 16/09 A3003 RMK AO2 T01590085
KCVX 171515Z AUTO 23013G20KT 10SM CLR 16/08 A3003 RMK AO2 T01560081
KCVX 171454Z AUTO 25012G21KT 10SM CLR 16/08 A3003 RMK AO2 T01550082
KCVX 171434Z AUTO 24014G21KT 10SM CLR 15/08 A3002 RMK AO2 T01540080
KCVX 171415Z AUTO 24014G19KT 10SM CLR 15/08 A3002 RMK AO2 T01520084
KCVX 171354Z AUTO 24009G18KT 10SM CLR 15/09 A3002 RMK AO2 T01470088
KCVX 171334Z AUTO 23009KT 10SM CLR 14/09 A3001 RMK AO2 T01370088
KCVX 171315Z AUTO 22008KT 10SM CLR 13/08 A3001 RMK AO2 T01310084
KCVX 171254Z AUTO 22009KT 10SM CLR 13/08 A3001 RMK AO2 T01260080
KCVX 171234Z AUTO 21007KT 10SM CLR 12/08 A3000 RMK AO2 T01210077
KCVX 171215Z AUTO 22009KT 10SM CLR 12/08 A3000 RMK AO2 T01200076
KCVX 171154Z AUTO 20010G15KT 10SM CLR 12/08 A2999 RMK AO2 T01200075
KCVX 171134Z AUTO 21011G16KT 10SM CLR 12/08 A3000 RMK AO2 T01200075
KCVX 171115Z AUTO 21011G15KT 10SM CLR 12/07 A3000 RMK AO2 T01150072
KCVX 171054Z AUTO 20010KT 10SM CLR 12/07 A3000 RMK AO2 T01150071
KCVX 171034Z AUTO 20010G17KT 10SM CLR 12/07 A3000 RMK AO2 T01170070
KCVX 171014Z AUTO 20011G19KT 10SM CLR 12/07 A3000 RMK AO2 T01180069
KCVX 170954Z AUTO 20008KT 10SM CLR 11/07 A3000 RMK AO2 T01110067
KCVX 170935Z AUTO 19008KT 10SM CLR 11/07 A3000 RMK AO2 T01050065
KCVX 170914Z AUTO 19008KT 10SM CLR 10/06 A3001 RMK AO2 T01000060
KCVX 170854Z AUTO 18010KT 10SM CLR 10/06 A3002 RMK AO2 T01000060
KCVX 170834Z AUTO 18009KT 10SM CLR 10/06 A3002 RMK AO2 T01000060
KCVX 170814Z AUTO 19008KT 10SM SCT110 10/06 A3003 RMK AO2 T01010061
KCVX 170754Z AUTO 19009KT 10SM OVC110 10/06 A3004 RMK AO2 T01010063
KCVX 170734Z AUTO 19008KT 10SM BKN120 10/06 A3005 RMK AO2 T01010063
KCVX 170714Z AUTO 19008KT 10SM SCT120 10/06 A3006 RMK AO2 T01000063
KCVX 170654Z AUTO 19008KT 10SM BKN120 10/06 A3007 RMK AO2 T01000062
KCVX 170635Z AUTO 18006KT 10SM BKN110 10/06 A3008 RMK AO2 T00990061
KCVX 170614Z AUTO 19008KT 160V220 10SM SCT110 10/06 A3008 RMK AO2 T00990061
KCVX 170554Z AUTO 20007KT 10SM BKN110 10/06 A3008 RMK AO2 T00950061
KCVX 170535Z AUTO 19007KT 10SM SCT110 09/06 A3008 RMK AO2 T00920060
KCVX 170514Z AUTO 19006KT 10SM CLR 09/06 A3009 RMK AO2 T00910057
KCVX 170454Z AUTO 19007KT 10SM CLR 09/06 A3010 RMK AO2 T00900055
KCVX 170435Z AUTO 19005KT 10SM CLR 09/05 A3010 RMK AO2 T00900052
KCVX 170414Z AUTO 18006KT 10SM CLR 09/05 A3010 RMK AO2 T00900050
KCVX 170354Z AUTO 18006KT 10SM CLR 09/05 A3012 RMK AO2 T00910050
KCVX 170335Z AUTO 18007KT 10SM CLR 09/05 A3012 RMK AO2 T00930048
KCVX 170314Z AUTO 19008KT 10SM CLR 10/05 A3012 RMK AO2 T00950047
KCVX 170254Z AUTO 19007KT 10SM CLR 10/05 A3013 RMK AO2 T00950046
KCVX 170235Z AUTO 19006KT 10SM CLR 10/04 A3013 RMK AO2 T00960044
KCVX 170214Z AUTO 19006KT 10SM CLR 10/05 A3013 RMK AO2 T00970045
KCVX 170154Z AUTO 19006KT 10SM CLR 10/05 A3014 RMK AO2 T00970045
KCVX 170135Z AUTO 19006KT 10SM CLR 10/05 A3014 RMK AO2 T00950046
KCVX 170114Z AUTO 18004KT 10SM CLR 10/04 A3014 RMK AO2 T00970044
KCVX 170054Z AUTO 20006KT 10SM CLR 10/04 A3014 RMK AO2 T00970042
KCVX 170034Z AUTO 20007KT 10SM CLR 10/04 A3015 RMK AO2 T00980041
KCVX 170014Z AUTO 20005KT 10SM CLR 10/04 A3015 RMK AO2 T01010041
KCVX 162354Z AUTO 20006KT 10SM CLR 11/04 A3017 RMK AO2 T01050037
KCVX 162334Z AUTO 21007KT 10SM SCT037 SCT044 SCT120 11/04 A3017 RMK AO2 T01050039
KCVX 162314Z AUTO 21006KT 10SM SCT120 10/04 A3017 RMK AO2 T01020042
KCVX 162254Z AUTO 21006KT 10SM CLR 11/04 A3017 RMK AO2 T01050043
KCVX 162234Z AUTO 22005KT 10SM CLR 11/04 A3017 RMK AO2 T01050042
KCVX 162214Z AUTO 22009KT 10SM CLR 11/04 A3018 RMK AO2 T01050042
KCVX 162154Z AUTO 23009G14KT 10SM SCT034 11/04 A3019 RMK AO2 T01090037
KCVX 162134Z AUTO 23008KT 10SM SCT034 12/04 A3019 RMK AO2 T01150040
KCVX 162114Z AUTO 23009G18KT 10SM SCT036 12/04 A3019 RMK AO2 T01150040
KCVX 162055Z AUTO 23012G16KT 10SM SCT036 12/04 A3020 RMK AO2 T01190039
KCVX 162034Z AUTO 24015G19KT 10SM CLR 12/04 A3019 RMK AO2 T01180039
KCVX 162014Z AUTO 25013G20KT 10SM CLR 12/04 A3019 RMK AO2 T01240036
KCVX 161955Z AUTO 24014G19KT 10SM CLR 13/03 A3019 RMK AO2 T01250034
KCVX 161934Z AUTO 25014G22KT 10SM CLR 13/02 A3019 RMK AO2 T01260023